createdAt,value
2022-07-27T06:08:49.298Z,100.00
2022-07-27T06:11:26.531Z,99.26
2022-07-27T06:14:03.352Z,99.22
2022-07-27T06:16:40.551Z,99.51
2022-07-27T06:19:17.445Z,99.44
2022-07-27T06:21:55.081Z,99.40
2022-07-27T06:24:34.539Z,97.69
2022-07-27T06:27:11.520Z,98.60
2022-07-27T06:29:48.281Z,95.95
2022-07-27T06:32:25.249Z,94.37
2022-07-27T06:35:01.846Z,93.43
2022-07-27T06:37:44.308Z,93.35
2022-07-27T06:40:27.344Z,93.73
2022-07-27T06:43:06.849Z,92.56
2022-07-27T06:45:43.543Z,92.75
2022-07-27T06:48:21.583Z,89.27
2022-07-27T06:50:58.314Z,87.59
2022-07-27T06:53:36.756Z,86.97
2022-07-27T06:56:17.126Z,87.70
2022-07-27T06:58:54.421Z,88.13
2022-07-27T07:01:33.147Z,87.69
2022-07-27T07:04:11.367Z,88.48
2022-07-27T07:06:48.991Z,85.61
2022-07-27T07:09:26.219Z,86.09
2022-07-27T07:12:06.010Z,82.92
2022-07-27T07:14:44.278Z,81.09
2022-07-27T07:17:20.966Z,79.16
2022-07-27T07:19:57.977Z,76.27
2022-07-27T07:22:34.687Z,74.02
2022-07-27T07:25:12.614Z,74.07
2022-07-27T07:27:52.245Z,76.05
2022-07-27T07:30:30.057Z,76.90
2022-07-27T07:33:07.927Z,75.30
2022-07-27T07:36:14.192Z,73.34
2022-07-27T07:38:42.098Z,72.32
2022-07-27T07:41:19.118Z,70.39
2022-07-27T07:43:58.569Z,70.54
2022-07-27T07:46:37.345Z,70.32
2022-07-27T07:49:14.610Z,69.65
2022-07-27T07:51:52.084Z,70.01
2022-07-27T07:54:28.899Z,70.37
2022-07-27T07:57:06.338Z,71.74
2022-07-27T07:59:45.859Z,72.09
2022-07-27T08:02:23.328Z,71.73
2022-07-27T08:05:00.273Z,68.38
2022-07-27T08:07:37.309Z,68.74
2022-07-27T08:10:15.938Z,66.49
2022-07-27T08:12:56.922Z,67.72
2022-07-27T08:15:36.758Z,67.51
2022-07-27T08:18:14.018Z,68.45
2022-07-27T08:20:51.037Z,69.32
2022-07-27T08:23:28.717Z,69.92
2022-07-27T08:26:08.027Z,70.60
2022-07-27T08:28:45.767Z,72.17
2022-07-27T08:31:51.009Z,73.10
2022-07-27T08:34:22.796Z,73.53
2022-07-27T08:37:00.055Z,74.87
2022-07-27T08:42:35.590Z,77.28
2022-07-27T08:45:16.797Z,77.27
2022-07-27T08:47:57.102Z,77.73
2022-07-27T08:50:35.756Z,76.82
2022-07-27T08:53:17.189Z,76.43
2022-07-27T08:55:57.112Z,76.40
2022-07-27T08:58:33.995Z,77.27
2022-07-27T09:01:11.248Z,77.31
2022-07-27T09:03:50.807Z,77.99
2022-07-27T09:06:53.365Z,79.17
2022-07-27T09:09:31.247Z,78.14
2022-07-27T09:12:11.687Z,77.85
2022-07-27T09:14:52.871Z,78.06
2022-07-27T09:17:49.170Z,78.00
2022-07-27T09:20:29.287Z,76.10
2022-07-27T09:23:07.336Z,77.31
2022-07-27T09:26:02.967Z,78.65
2022-07-27T09:28:41.767Z,80.51
2022-07-27T09:31:19.739Z,80.75
2022-07-27T09:33:58.875Z,81.47
2022-07-27T09:36:52.448Z,80.50
2022-07-27T09:39:31.180Z,80.19
2022-07-27T09:42:09.346Z,80.79
2022-07-27T09:44:57.466Z,79.13
2022-07-27T09:47:35.207Z,77.79
2022-07-27T09:50:24.096Z,79.20
2022-07-27T09:53:42.280Z,79.00
2022-07-27T09:56:19.987Z,74.86
2022-07-27T09:58:59.456Z,75.96
2022-07-27T10:01:46.779Z,71.01
2022-07-27T10:04:26.801Z,71.12
2022-07-27T10:07:08.345Z,71.88
2022-07-27T10:09:52.186Z,72.26
2022-07-27T10:12:32.008Z,72.09
2022-07-27T10:15:10.798Z,71.54
2022-07-27T10:17:48.867Z,73.12
2022-07-27T10:20:25.736Z,73.37
2022-07-27T10:23:04.347Z,72.91
2022-07-27T10:25:48.257Z,74.48
2022-07-27T10:28:25.988Z,75.24
2022-07-27T10:31:20.734Z,78.40
2022-07-27T10:34:00.659Z,79.47
2022-07-27T10:36:56.588Z,81.27
2022-07-27T10:39:40.925Z,82.82
2022-07-27T10:42:41.419Z,84.29
2022-07-27T10:45:20.316Z,84.94
2022-07-27T10:47:57.597Z,81.12
2022-07-27T10:50:35.929Z,81.66
2022-07-27T10:53:16.973Z,81.05
2022-07-27T10:55:56.939Z,77.92
2022-07-27T10:58:57.102Z,76.49
2022-07-27T11:01:34.284Z,75.11
2022-07-27T11:04:14.027Z,75.71
2022-07-27T11:07:23.189Z,76.16
2022-07-27T11:10:06.299Z,76.35
2022-07-27T11:12:44.599Z,77.17
2022-07-27T11:15:24.518Z,79.21
2022-07-27T11:18:04.960Z,82.33
2022-07-27T11:20:42.165Z,84.68
2022-07-27T11:23:50.558Z,86.53
2022-07-27T11:26:20.834Z,87.61
2022-07-27T11:28:58.689Z,89.42
2022-07-27T11:31:57.129Z,87.60
2022-07-27T11:34:38.168Z,88.10
2022-07-27T11:37:19.531Z,86.17
2022-07-27T11:40:27.859Z,86.51
2022-07-27T11:43:00.180Z,83.89
2022-07-27T11:45:40.185Z,84.54
2022-07-27T11:48:21.701Z,84.22
2022-07-27T11:51:02.195Z,82.09
2022-07-27T11:53:39.822Z,80.61
2022-07-27T11:56:24.639Z,76.05
2022-07-27T11:59:15.549Z,74.42
2022-07-27T12:01:56.736Z,72.16
2022-07-27T12:04:39.760Z,73.00
2022-07-27T12:07:22.501Z,73.61
2022-07-27T12:10:02.952Z,73.17
2022-07-27T12:12:43.134Z,71.36
2022-07-27T12:18:24.919Z,63.97
2022-07-27T12:21:20.572Z,63.82
2022-07-27T12:23:59.033Z,64.02
2022-07-27T12:26:37.716Z,65.95
2022-07-27T12:29:18.288Z,68.32
2022-07-27T12:31:57.975Z,68.71
2022-07-27T12:34:39.242Z,68.03
2022-07-27T12:37:19.059Z,68.89
2022-07-27T12:39:56.301Z,69.31
2022-07-27T12:42:40.152Z,70.56
2022-07-27T12:45:23.283Z,71.19
2022-07-27T12:48:11.447Z,71.84
2022-07-27T12:50:59.979Z,70.00
2022-07-27T12:53:41.852Z,70.11
2022-07-27T12:56:26.971Z,68.42
2022-07-27T12:59:06.812Z,67.93
2022-07-27T13:01:44.051Z,66.09
2022-07-27T13:04:20.719Z,65.53
2022-07-27T13:06:57.727Z,65.14
2022-07-27T13:10:03.175Z,65.05
2022-07-27T13:12:34.283Z,62.13
2022-07-27T13:15:13.423Z,60.70
2022-07-27T13:17:51.332Z,58.22
2022-07-27T13:20:28.192Z,55.19
2022-07-27T13:23:05.967Z,51.74
2022-07-27T13:25:45.307Z,51.44
2022-07-27T13:28:22.701Z,51.58
2022-07-27T13:30:59.794Z,52.70
2022-07-27T13:33:36.851Z,53.28
2022-07-27T13:36:13.633Z,54.61
2022-07-27T13:38:50.732Z,55.09
2022-07-27T13:41:30.253Z,56.03
2022-07-27T13:44:12.430Z,58.20
2022-07-27T13:46:56.110Z,59.37
2022-07-27T13:49:33.491Z,60.48
2022-07-27T13:52:15.214Z,65.05
2022-07-27T13:54:52.890Z,68.41
2022-07-27T13:57:32.346Z,70.20
2022-07-27T14:00:11.799Z,70.39
2022-07-27T14:02:49.227Z,67.88
2022-07-27T14:05:26.996Z,67.94
2022-07-27T14:08:05.392Z,65.44
2022-07-27T14:10:42.874Z,64.57
2022-07-27T14:13:23.287Z,63.03
2022-07-27T14:16:00.827Z,60.10
2022-07-27T14:18:38.715Z,58.52
2022-07-27T14:21:16.215Z,55.37
2022-07-27T14:23:53.373Z,53.10
2022-07-27T14:26:30.916Z,52.75
2022-07-27T14:29:10.674Z,53.41
2022-07-27T14:31:48.782Z,54.44
2022-07-27T14:34:25.541Z,55.52
2022-07-27T14:37:03.181Z,56.56
2022-07-27T14:39:41.079Z,57.78
2022-07-27T14:42:20.018Z,58.84
2022-07-27T14:44:59.694Z,59.96
2022-07-27T14:47:36.913Z,61.95
2022-07-27T14:50:14.112Z,63.87
2022-07-27T14:52:51.292Z,65.62
2022-07-27T14:55:28.403Z,67.70
2022-07-27T14:58:05.806Z,68.21
2022-07-27T15:00:45.572Z,68.67
2022-07-27T15:03:23.031Z,69.74
2022-07-27T15:05:59.931Z,70.16
2022-07-27T15:08:37.062Z,71.17
2022-07-27T15:11:14.146Z,73.05
2022-07-27T15:13:51.683Z,73.57
2022-07-27T15:16:32.004Z,76.77
2022-07-27T15:19:10.078Z,78.98
2022-07-27T15:21:47.486Z,79.09
2022-07-27T15:24:24.692Z,78.84
2022-07-27T15:27:01.472Z,78.84
2022-07-27T15:29:39.079Z,79.31
2022-07-27T15:32:18.553Z,79.17
2022-07-27T15:34:56.552Z,78.14
2022-07-27T15:37:33.482Z,77.72
2022-07-27T15:40:25.400Z,77.19
2022-07-27T15:43:02.303Z,76.14
2022-07-27T15:45:39.539Z,76.44
2022-07-27T15:48:20.501Z,75.92
2022-07-27T15:50:58.838Z,75.15
2022-07-27T15:53:35.693Z,75.01
2022-07-27T15:56:12.712Z,75.12
2022-07-27T15:58:49.510Z,72.49
2022-07-27T16:01:35.301Z,74.16
2022-07-27T16:04:15.650Z,74.40
2022-07-27T16:06:52.839Z,75.28
2022-07-27T16:09:29.580Z,75.81
2022-07-27T16:12:07.031Z,82.14
2022-07-27T16:14:43.871Z,95.52
2022-07-27T16:17:21.031Z,98.36
2022-07-27T16:20:00.620Z,99.27
2022-07-27T16:22:39.805Z,99.89
2022-07-27T16:25:16.603Z,100.00
2022-07-27T16:27:53.663Z,100.00
2022-07-27T16:30:36.424Z,100.00
2022-07-27T16:33:15.332Z,100.00
2022-07-27T16:35:54.704Z,100.00
2022-07-27T16:38:32.061Z,100.00
2022-07-27T16:41:11.354Z,100.00
2022-07-27T16:43:48.669Z,100.00
2022-07-27T16:46:26.102Z,100.00
2022-07-27T16:49:03.929Z,99.47
2022-07-27T16:51:43.706Z,99.87
2022-07-27T16:54:20.775Z,100.00
2022-07-27T16:56:57.994Z,100.00
2022-07-27T16:59:39.768Z,100.00
2022-07-27T17:02:19.408Z,100.00
2022-07-27T17:04:56.509Z,100.00
2022-07-27T17:07:36.530Z,100.00
